createdAt,value
2022-12-31T00:00:32.357Z,0
2022-12-31T00:01:32.207Z,0
2022-12-31T00:02:32.310Z,0
2022-12-31T00:03:32.267Z,0
2022-12-31T00:04:32.229Z,0
2022-12-31T00:05:32.263Z,0
2022-12-31T00:06:32.267Z,0
2022-12-31T00:08:33.681Z,0
2022-12-31T00:09:37.670Z,0
2022-12-31T00:10:41.878Z,0
2022-12-31T00:11:45.591Z,0
2022-12-31T00:12:49.627Z,0
2022-12-31T00:13:53.621Z,0
2022-12-31T00:14:57.645Z,0
2022-12-31T00:16:05.428Z,0
2022-12-31T00:17:05.692Z,0
2022-12-31T00:18:09.612Z,0
2022-12-31T00:19:14.106Z,0
2022-12-31T00:20:17.600Z,0
2022-12-31T00:21:21.621Z,0
2022-12-31T00:22:25.647Z,0
2022-12-31T00:23:29.595Z,0
2022-12-31T00:24:31.307Z,0
2022-12-31T00:25:31.200Z,0
2022-12-31T00:26:31.202Z,0
2022-12-31T00:27:31.194Z,0
2022-12-31T00:28:31.187Z,0
2022-12-31T00:29:31.164Z,0
2022-12-31T00:30:31.261Z,0
2022-12-31T00:31:31.199Z,0
2022-12-31T00:32:31.214Z,0
2022-12-31T00:33:31.170Z,0
2022-12-31T00:34:31.201Z,0
2022-12-31T00:35:31.193Z,0
2022-12-31T00:36:31.215Z,0
2022-12-31T00:37:31.185Z,0
2022-12-31T00:38:31.200Z,0
2022-12-31T00:39:31.242Z,0
2022-12-31T00:40:31.215Z,0
2022-12-31T00:41:31.177Z,0
2022-12-31T00:42:31.203Z,0
2022-12-31T00:43:31.228Z,0
2022-12-31T00:44:31.222Z,0
2022-12-31T00:45:31.177Z,0
2022-12-31T00:46:31.265Z,0
2022-12-31T00:47:31.255Z,0
2022-12-31T00:48:31.226Z,0
2022-12-31T00:49:31.225Z,0
2022-12-31T00:50:31.232Z,0
2022-12-31T00:51:31.174Z,0
2022-12-31T00:52:31.244Z,0
2022-12-31T00:53:31.202Z,0
2022-12-31T00:54:31.180Z,0
2022-12-31T00:55:31.207Z,0
2022-12-31T00:56:31.215Z,0
2022-12-31T00:57:31.184Z,0
2022-12-31T00:58:31.197Z,0
2022-12-31T00:59:31.195Z,0
2022-12-31T01:00:31.239Z,0
2022-12-31T01:01:31.473Z,0
2022-12-31T01:02:31.437Z,0
2022-12-31T01:03:31.219Z,0
2022-12-31T01:04:31.234Z,0
2022-12-31T01:05:31.169Z,0
2022-12-31T01:06:31.175Z,0
2022-12-31T01:07:31.191Z,0
2022-12-31T01:08:31.193Z,0
2022-12-31T01:09:31.175Z,0
2022-12-31T01:10:31.212Z,0
2022-12-31T01:11:31.178Z,0
2022-12-31T01:12:31.212Z,0
2022-12-31T01:13:31.201Z,0
2022-12-31T01:14:31.210Z,0
2022-12-31T01:15:31.309Z,0
2022-12-31T01:16:31.210Z,0
2022-12-31T01:17:31.165Z,0
2022-12-31T01:18:31.258Z,0
2022-12-31T01:19:31.233Z,0
2022-12-31T01:20:31.200Z,0
2022-12-31T01:21:31.157Z,0
2022-12-31T01:22:31.208Z,0
2022-12-31T01:23:31.196Z,0
2022-12-31T01:24:31.177Z,0
2022-12-31T01:25:31.208Z,0
2022-12-31T01:26:31.179Z,0
2022-12-31T01:27:31.175Z,0
2022-12-31T01:28:31.233Z,0
2022-12-31T01:29:31.215Z,0
2022-12-31T01:30:31.186Z,0
2022-12-31T01:31:31.255Z,0
2022-12-31T01:32:31.155Z,0
2022-12-31T01:33:31.208Z,0
2022-12-31T01:34:31.190Z,0
2022-12-31T01:35:31.161Z,0
2022-12-31T01:36:31.149Z,0
2022-12-31T01:37:31.203Z,0
2022-12-31T01:38:31.197Z,0
2022-12-31T01:39:31.190Z,0
2022-12-31T01:40:31.294Z,0
2022-12-31T01:41:31.416Z,0
2022-12-31T01:42:31.300Z,0
2022-12-31T01:43:31.330Z,0
2022-12-31T01:44:31.288Z,0
2022-12-31T01:45:31.316Z,0
2022-12-31T01:46:31.358Z,0
2022-12-31T01:47:31.268Z,0
2022-12-31T01:48:31.290Z,0
2022-12-31T01:49:31.319Z,0
2022-12-31T01:50:31.276Z,0
2022-12-31T01:51:31.346Z,0
2022-12-31T01:52:31.334Z,0
2022-12-31T01:53:31.201Z,0
2022-12-31T01:54:31.149Z,0
2022-12-31T01:55:31.192Z,0
2022-12-31T01:56:31.173Z,0
2022-12-31T01:57:31.190Z,0
2022-12-31T01:58:31.175Z,0
2022-12-31T01:59:31.217Z,0
2022-12-31T02:00:31.178Z,0
2022-12-31T02:01:31.313Z,0
2022-12-31T02:02:31.291Z,0
2022-12-31T02:03:31.232Z,0
2022-12-31T02:04:31.177Z,0
2022-12-31T02:05:31.235Z,0
2022-12-31T02:06:31.142Z,0
2022-12-31T02:07:31.186Z,0
2022-12-31T02:08:31.146Z,0
2022-12-31T02:09:31.205Z,0
2022-12-31T02:10:31.184Z,0
2022-12-31T02:11:31.142Z,0
2022-12-31T02:12:31.187Z,0
2022-12-31T02:13:31.230Z,0
2022-12-31T02:14:31.158Z,0
2022-12-31T02:15:31.232Z,0
2022-12-31T02:16:31.173Z,0
2022-12-31T02:17:31.204Z,0
2022-12-31T02:18:31.152Z,0
2022-12-31T02:19:31.163Z,0
2022-12-31T02:20:31.161Z,0
2022-12-31T02:21:31.173Z,0
2022-12-31T02:22:31.184Z,0
2022-12-31T02:23:31.192Z,0
2022-12-31T02:24:31.167Z,0
2022-12-31T02:25:31.189Z,0
2022-12-31T02:26:31.187Z,0
2022-12-31T02:27:31.192Z,0
2022-12-31T02:28:31.179Z,0
2022-12-31T02:29:31.225Z,0
2022-12-31T02:30:31.171Z,0
2022-12-31T02:31:31.186Z,0
2022-12-31T02:32:31.193Z,0
2022-12-31T02:33:31.193Z,0
2022-12-31T02:34:31.171Z,0
2022-12-31T02:35:31.181Z,0
2022-12-31T02:36:31.186Z,0
2022-12-31T02:37:31.187Z,0
2022-12-31T02:38:31.274Z,0
2022-12-31T02:39:31.164Z,0
2022-12-31T02:40:31.193Z,0
2022-12-31T02:41:31.187Z,0
2022-12-31T02:42:31.159Z,0
2022-12-31T02:43:31.192Z,0
2022-12-31T02:44:31.181Z,0
2022-12-31T02:45:31.212Z,0
2022-12-31T02:46:31.240Z,0
2022-12-31T02:47:31.181Z,0
2022-12-31T02:48:31.192Z,0
2022-12-31T02:49:31.216Z,0
2022-12-31T02:50:31.164Z,0
2022-12-31T02:51:31.169Z,0
2022-12-31T02:52:31.157Z,0
2022-12-31T02:53:31.235Z,0
2022-12-31T02:54:31.144Z,0
2022-12-31T02:55:31.191Z,0
2022-12-31T02:56:31.155Z,0
2022-12-31T02:57:31.192Z,0
2022-12-31T02:58:31.161Z,0
2022-12-31T02:59:31.188Z,0
2022-12-31T03:00:31.215Z,0
2022-12-31T03:01:31.328Z,0
2022-12-31T03:02:31.304Z,0
2022-12-31T03:03:31.198Z,0
2022-12-31T03:04:31.194Z,0
2022-12-31T03:05:31.174Z,0
2022-12-31T03:06:31.257Z,0
2022-12-31T03:07:31.182Z,0
2022-12-31T03:08:31.184Z,0
2022-12-31T03:09:31.220Z,0
2022-12-31T03:10:31.343Z,0
2022-12-31T03:11:31.368Z,0
2022-12-31T03:12:31.334Z,0
2022-12-31T03:13:31.289Z,0
2022-12-31T03:14:31.172Z,0
2022-12-31T03:15:31.189Z,0
2022-12-31T03:16:31.292Z,0
2022-12-31T03:17:31.296Z,0
2022-12-31T03:18:31.286Z,0
2022-12-31T03:19:31.208Z,0
2022-12-31T03:20:31.160Z,0
2022-12-31T03:21:31.300Z,0
2022-12-31T03:22:31.199Z,0
2022-12-31T03:23:31.231Z,0
2022-12-31T03:24:31.338Z,0
2022-12-31T03:25:31.350Z,0
2022-12-31T03:26:31.151Z,0
2022-12-31T03:27:31.216Z,0
2022-12-31T03:28:31.208Z,0
2022-12-31T03:29:31.333Z,0
2022-12-31T03:30:31.226Z,0
2022-12-31T03:31:31.191Z,0
2022-12-31T03:32:31.148Z,0
2022-12-31T03:33:31.183Z,0
2022-12-31T03:34:31.162Z,0
2022-12-31T03:35:31.248Z,0
2022-12-31T03:36:31.340Z,0
2022-12-31T03:37:31.371Z,0
2022-12-31T03:38:31.258Z,0
2022-12-31T03:39:31.200Z,0
2022-12-31T03:40:31.223Z,0
2022-12-31T03:41:31.202Z,0
2022-12-31T03:42:31.244Z,0
2022-12-31T03:43:31.306Z,0
2022-12-31T03:44:31.301Z,0
2022-12-31T03:45:31.420Z,0
2022-12-31T03:46:31.316Z,0
2022-12-31T03:47:31.184Z,0
2022-12-31T03:48:31.144Z,0
2022-12-31T03:49:31.193Z,0
2022-12-31T03:50:31.152Z,0
2022-12-31T03:51:31.159Z,0
2022-12-31T03:52:31.219Z,0
2022-12-31T03:53:31.201Z,0
2022-12-31T03:54:31.179Z,0
2022-12-31T03:55:31.166Z,0
2022-12-31T03:56:31.165Z,0
2022-12-31T03:57:31.189Z,0
2022-12-31T03:58:31.234Z,0
2022-12-31T03:59:31.195Z,0
2022-12-31T04:00:31.204Z,0
2022-12-31T04:01:31.379Z,0
2022-12-31T04:02:31.458Z,0
2022-12-31T04:03:31.141Z,0
2022-12-31T04:04:31.137Z,0
2022-12-31T04:05:31.293Z,0
2022-12-31T04:06:31.170Z,0
2022-12-31T04:07:31.166Z,0
2022-12-31T04:08:31.146Z,0
2022-12-31T04:09:31.175Z,0
2022-12-31T04:10:31.169Z,0
2022-12-31T04:11:31.154Z,0
2022-12-31T04:12:31.165Z,0
2022-12-31T04:13:31.201Z,0
2022-12-31T04:14:31.175Z,0
2022-12-31T04:15:31.161Z,0
2022-12-31T04:16:31.157Z,0
2022-12-31T04:17:31.218Z,0
2022-12-31T04:18:31.181Z,0
2022-12-31T04:19:31.153Z,0
2022-12-31T04:20:31.152Z,0
2022-12-31T04:21:34.966Z,0
2022-12-31T04:22:31.190Z,0
2022-12-31T04:23:31.171Z,0
2022-12-31T04:24:31.188Z,0
2022-12-31T04:25:31.183Z,0
2022-12-31T04:26:31.168Z,0
2022-12-31T04:27:31.163Z,0
2022-12-31T04:28:31.172Z,0
2022-12-31T04:29:31.190Z,0
2022-12-31T04:30:31.170Z,0
2022-12-31T04:31:31.231Z,0
2022-12-31T04:32:31.232Z,0
2022-12-31T04:33:31.176Z,0
2022-12-31T04:34:31.172Z,0
2022-12-31T04:35:31.215Z,0
2022-12-31T04:36:31.230Z,0
2022-12-31T04:37:31.159Z,0
2022-12-31T04:38:31.172Z,0
2022-12-31T04:39:31.151Z,0
2022-12-31T04:40:31.211Z,0
2022-12-31T04:41:31.143Z,0
2022-12-31T04:42:31.180Z,0
2022-12-31T04:43:31.168Z,0
2022-12-31T04:44:31.182Z,0
2022-12-31T04:45:31.326Z,0
2022-12-31T04:46:31.163Z,0
2022-12-31T04:47:31.168Z,0
2022-12-31T04:48:31.187Z,0
2022-12-31T04:49:31.153Z,0
2022-12-31T04:50:31.293Z,0
2022-12-31T04:51:31.230Z,0
2022-12-31T04:52:34.525Z,0
2022-12-31T04:53:31.166Z,0
2022-12-31T04:54:31.231Z,0
2022-12-31T04:55:31.161Z,0
2022-12-31T04:56:31.205Z,0
2022-12-31T04:57:31.290Z,0
2022-12-31T04:58:31.175Z,0
2022-12-31T04:59:31.141Z,0
2022-12-31T05:00:31.176Z,0
2022-12-31T05:01:31.230Z,0
2022-12-31T05:02:31.428Z,0
2022-12-31T05:03:31.178Z,0
2022-12-31T05:04:31.260Z,0
2022-12-31T05:05:31.147Z,0
2022-12-31T05:06:31.150Z,0
2022-12-31T05:07:31.139Z,0
2022-12-31T05:08:31.185Z,0
2022-12-31T05:09:31.254Z,0
2022-12-31T05:10:31.231Z,0
2022-12-31T05:11:31.170Z,0
2022-12-31T05:12:31.169Z,0
2022-12-31T05:13:33.405Z,0
2022-12-31T05:14:31.185Z,0
2022-12-31T05:15:31.198Z,0
2022-12-31T05:16:31.261Z,0
2022-12-31T05:17:31.175Z,0
2022-12-31T05:18:31.179Z,0
2022-12-31T05:19:31.148Z,0
2022-12-31T05:20:31.169Z,0
2022-12-31T05:21:31.154Z,0
2022-12-31T05:22:31.235Z,0
2022-12-31T05:23:31.184Z,0
2022-12-31T05:24:31.099Z,0
2022-12-31T05:25:31.195Z,0
2022-12-31T05:26:31.124Z,0
2022-12-31T05:27:31.540Z,0
2022-12-31T05:28:31.142Z,0
2022-12-31T05:29:31.198Z,0
2022-12-31T05:30:31.157Z,0
2022-12-31T05:31:31.148Z,0
2022-12-31T05:32:31.134Z,0
2022-12-31T05:33:31.170Z,0
2022-12-31T05:34:31.144Z,0
2022-12-31T05:35:31.185Z,0
2022-12-31T05:36:31.145Z,0
2022-12-31T05:37:31.210Z,0
2022-12-31T05:38:31.143Z,0
2022-12-31T05:39:31.164Z,0
2022-12-31T05:40:31.156Z,0
2022-12-31T05:41:31.188Z,0
2022-12-31T05:42:31.193Z,0
2022-12-31T05:43:31.161Z,0
2022-12-31T05:44:31.148Z,0
2022-12-31T05:45:31.522Z,0
2022-12-31T05:46:31.170Z,0
2022-12-31T05:47:31.217Z,0
2022-12-31T05:48:31.143Z,0
2022-12-31T05:49:31.175Z,0
2022-12-31T05:50:31.141Z,0
2022-12-31T05:51:31.177Z,0
2022-12-31T05:52:31.166Z,0
2022-12-31T05:53:31.224Z,0
2022-12-31T05:54:31.147Z,0
2022-12-31T05:55:31.146Z,0
2022-12-31T05:56:31.121Z,0
2022-12-31T05:57:31.175Z,0
2022-12-31T05:58:31.179Z,0
2022-12-31T05:59:31.221Z,0
2022-12-31T06:00:31.172Z,0
2022-12-31T06:01:31.346Z,0
2022-12-31T06:02:31.161Z,0
2022-12-31T06:03:31.227Z,0
2022-12-31T06:04:31.227Z,0
2022-12-31T06:05:31.196Z,0
2022-12-31T06:06:31.129Z,0
2022-12-31T06:07:31.144Z,0
2022-12-31T06:08:31.185Z,0
2022-12-31T06:09:31.184Z,0
2022-12-31T06:10:31.129Z,0
2022-12-31T06:11:31.143Z,0
2022-12-31T06:12:31.217Z,0
2022-12-31T06:13:31.184Z,0
2022-12-31T06:14:31.155Z,0
2022-12-31T06:15:31.264Z,0
2022-12-31T06:16:31.163Z,0
2022-12-31T06:17:31.162Z,0
2022-12-31T06:18:31.158Z,0
2022-12-31T06:19:31.173Z,0
2022-12-31T06:20:31.126Z,0
2022-12-31T06:21:31.149Z,0
2022-12-31T06:22:31.157Z,0
2022-12-31T06:23:31.172Z,0
2022-12-31T06:24:31.160Z,0
2022-12-31T06:25:31.185Z,0
2022-12-31T06:26:31.140Z,0
2022-12-31T06:27:31.131Z,0
2022-12-31T06:28:31.172Z,0
2022-12-31T06:29:31.155Z,0
2022-12-31T06:30:31.170Z,0
2022-12-31T06:31:31.234Z,0
2022-12-31T06:32:31.193Z,0
2022-12-31T06:33:31.234Z,0
2022-12-31T06:34:31.135Z,0
2022-12-31T06:35:31.143Z,0
2022-12-31T06:36:31.197Z,0
2022-12-31T06:37:31.195Z,0
2022-12-31T06:38:31.126Z,0
2022-12-31T06:39:31.117Z,0
2022-12-31T06:40:31.185Z,0
2022-12-31T06:41:31.159Z,0
2022-12-31T06:42:31.153Z,0
2022-12-31T06:43:31.140Z,0
2022-12-31T06:44:31.165Z,0
2022-12-31T06:45:31.155Z,0
2022-12-31T06:46:31.157Z,0
2022-12-31T06:47:31.149Z,0
2022-12-31T06:48:31.168Z,0
2022-12-31T06:49:31.145Z,0
2022-12-31T06:50:31.156Z,0
2022-12-31T06:51:31.132Z,0
2022-12-31T06:52:31.309Z,0
2022-12-31T06:53:31.168Z,0
2022-12-31T06:54:31.168Z,0
2022-12-31T06:55:31.182Z,0
2022-12-31T06:56:33.871Z,0
2022-12-31T06:57:31.152Z,0
2022-12-31T06:58:31.133Z,0
2022-12-31T06:59:31.124Z,0
2022-12-31T07:00:31.296Z,0
2022-12-31T07:01:31.340Z,0
2022-12-31T07:02:31.352Z,0
2022-12-31T07:03:31.224Z,0
2022-12-31T07:04:31.200Z,0
2022-12-31T07:05:31.261Z,0
2022-12-31T07:06:31.128Z,0
2022-12-31T07:07:31.156Z,0
2022-12-31T07:08:31.157Z,0
2022-12-31T07:09:31.154Z,0
2022-12-31T07:10:31.152Z,0
2022-12-31T07:11:31.136Z,0
2022-12-31T07:12:31.224Z,0
2022-12-31T07:13:31.167Z,0
2022-12-31T07:14:31.115Z,0
2022-12-31T07:15:31.171Z,0
2022-12-31T07:16:31.327Z,0
2022-12-31T07:17:31.132Z,0
2022-12-31T07:18:31.127Z,0
2022-12-31T07:19:31.150Z,0
2022-12-31T07:20:31.165Z,0
2022-12-31T07:21:31.159Z,0
2022-12-31T07:22:31.298Z,0
2022-12-31T07:23:31.472Z,0
2022-12-31T07:24:31.163Z,0
2022-12-31T07:25:31.148Z,0
2022-12-31T07:26:31.160Z,0
2022-12-31T07:27:31.126Z,0
2022-12-31T07:28:31.164Z,0
2022-12-31T07:29:31.142Z,0
2022-12-31T07:30:31.146Z,0
2022-12-31T07:31:31.183Z,0
2022-12-31T07:32:31.137Z,0
2022-12-31T07:33:31.156Z,0
2022-12-31T07:34:31.184Z,0
2022-12-31T07:35:34.985Z,0
2022-12-31T07:36:31.144Z,0
2022-12-31T07:37:31.127Z,0
2022-12-31T07:38:31.267Z,0
2022-12-31T07:39:31.127Z,0
2022-12-31T07:40:31.188Z,0
2022-12-31T07:41:31.120Z,0
2022-12-31T07:42:31.195Z,0
2022-12-31T07:43:31.117Z,0
2022-12-31T07:44:31.154Z,0.36
2022-12-31T07:45:31.185Z,0
2022-12-31T07:46:31.292Z,0.36
2022-12-31T07:47:31.159Z,0
2022-12-31T07:48:31.152Z,0
2022-12-31T07:49:31.187Z,0
2022-12-31T07:50:31.163Z,0.85
2022-12-31T07:51:31.152Z,0.36
2022-12-31T07:52:31.156Z,0.85
2022-12-31T07:53:31.111Z,0.85
2022-12-31T07:54:31.173Z,0
2022-12-31T07:55:31.189Z,0.85
2022-12-31T07:56:31.120Z,0.85
2022-12-31T07:57:31.150Z,0.85
2022-12-31T07:58:31.179Z,1.71
2022-12-31T07:59:31.161Z,0.85
2022-12-31T08:00:31.264Z,0.85
2022-12-31T08:01:31.248Z,2.08
2022-12-31T08:02:31.312Z,2.57
2022-12-31T08:03:31.136Z,2.57
2022-12-31T08:04:31.164Z,2.94
2022-12-31T08:05:31.130Z,2.08
2022-12-31T08:06:31.137Z,1.71
2022-12-31T08:07:31.108Z,2.57
2022-12-31T08:08:31.231Z,2.57
2022-12-31T08:09:31.102Z,3.43
2022-12-31T08:10:31.149Z,2.94
2022-12-31T08:11:31.123Z,2.94
2022-12-31T08:12:31.218Z,3.43
2022-12-31T08:13:31.132Z,2.94
2022-12-31T08:14:31.164Z,3.79
2022-12-31T08:15:31.162Z,2.94
2022-12-31T08:16:31.211Z,3.79
2022-12-31T08:17:31.140Z,3.79
2022-12-31T08:18:31.212Z,3.43
2022-12-31T08:19:31.140Z,5.14
2022-12-31T08:20:31.153Z,4.77
2022-12-31T08:21:34.846Z,5.14
2022-12-31T08:22:31.163Z,4.28
2022-12-31T08:23:31.147Z,3.79
2022-12-31T08:24:31.107Z,5.14
2022-12-31T08:25:31.144Z,4.77
2022-12-31T08:26:31.188Z,4.28
2022-12-31T08:27:31.131Z,4.28
2022-12-31T08:28:31.126Z,3.79
2022-12-31T08:29:31.176Z,4.28
2022-12-31T08:30:31.138Z,4.28
2022-12-31T08:31:31.149Z,3.79
2022-12-31T08:32:31.115Z,4.77
2022-12-31T08:33:31.163Z,3.79
2022-12-31T08:34:31.164Z,3.79
2022-12-31T08:35:31.263Z,4.28
2022-12-31T08:36:31.129Z,4.28
2022-12-31T08:37:31.170Z,4.77
2022-12-31T08:38:31.397Z,4.77
2022-12-31T08:39:31.157Z,4.77
2022-12-31T08:40:31.116Z,4.77
2022-12-31T08:41:31.200Z,4.77
2022-12-31T08:42:31.248Z,4.77
2022-12-31T08:43:31.158Z,4.77
2022-12-31T08:44:31.146Z,4.77
2022-12-31T08:45:31.200Z,5.63
2022-12-31T08:46:31.164Z,5.63
2022-12-31T08:47:35.457Z,5.63
2022-12-31T08:48:31.120Z,6.48
2022-12-31T08:49:31.175Z,5.63
2022-12-31T08:50:31.131Z,5.63
2022-12-31T08:51:31.113Z,6.48
2022-12-31T08:52:31.124Z,5.99
2022-12-31T08:53:31.190Z,6.48
2022-12-31T08:54:31.142Z,6.48
2022-12-31T08:55:31.137Z,6.48
2022-12-31T08:56:31.168Z,5.99
2022-12-31T08:57:31.184Z,7.34
2022-12-31T08:58:31.135Z,6.85
2022-12-31T08:59:31.177Z,6.85
2022-12-31T09:00:31.145Z,6.85
2022-12-31T09:01:31.380Z,6.85
2022-12-31T09:02:31.281Z,6.85
2022-12-31T09:03:31.111Z,7.34
2022-12-31T09:04:31.149Z,6.48
2022-12-31T09:05:31.188Z,7.34
2022-12-31T09:06:31.152Z,7.7
2022-12-31T09:07:31.113Z,6.48
2022-12-31T09:08:31.116Z,6.85
2022-12-31T09:09:31.159Z,7.34
2022-12-31T09:10:31.116Z,6.85
2022-12-31T09:11:31.151Z,7.7
2022-12-31T09:12:31.159Z,7.7
2022-12-31T09:13:31.192Z,7.34
2022-12-31T09:14:31.150Z,7.7
2022-12-31T09:15:31.161Z,7.7
2022-12-31T09:16:31.200Z,7.7
2022-12-31T09:17:31.166Z,7.34
2022-12-31T09:18:33.361Z,8.56
2022-12-31T09:19:31.180Z,9.05
2022-12-31T09:20:42.256Z,8.19
2022-12-31T09:21:31.144Z,8.56
2022-12-31T09:22:31.244Z,9.05
2022-12-31T09:23:31.122Z,9.05
2022-12-31T09:24:31.160Z,9.54
2022-12-31T09:25:31.275Z,8.56
2022-12-31T09:26:31.135Z,9.54
2022-12-31T09:27:31.153Z,8.56
2022-12-31T09:28:31.208Z,8.56
2022-12-31T09:29:31.111Z,10.39
2022-12-31T09:30:31.151Z,9.54
2022-12-31T09:31:31.198Z,10.39
2022-12-31T09:32:31.157Z,9.05
2022-12-31T09:33:31.151Z,10.39
2022-12-31T09:34:31.124Z,9.91
2022-12-31T09:35:31.151Z,9.54
2022-12-31T09:36:31.119Z,9.54
2022-12-31T09:37:31.161Z,9.05
2022-12-31T09:38:31.107Z,8.56
2022-12-31T09:39:31.148Z,8.19
2022-12-31T09:40:31.165Z,8.19
2022-12-31T09:41:31.123Z,7.34
2022-12-31T09:42:31.135Z,7.7
2022-12-31T09:43:31.139Z,8.56
2022-12-31T09:44:31.165Z,8.56
2022-12-31T09:45:31.196Z,9.05
2022-12-31T09:46:31.100Z,8.56
2022-12-31T09:47:31.139Z,8.19
2022-12-31T09:48:31.162Z,7.7
2022-12-31T09:49:31.120Z,7.34
2022-12-31T09:50:31.144Z,6.85
2022-12-31T09:51:31.148Z,7.7
2022-12-31T09:52:31.221Z,8.19
2022-12-31T09:53:31.125Z,9.05
2022-12-31T09:54:31.133Z,9.05
2022-12-31T09:55:31.164Z,9.54
2022-12-31T09:56:31.136Z,9.05
2022-12-31T09:57:31.131Z,9.54
2022-12-31T09:58:31.129Z,9.54
2022-12-31T09:59:31.191Z,9.05
2022-12-31T10:00:31.139Z,8.56
2022-12-31T10:01:31.224Z,9.54
2022-12-31T10:02:31.259Z,9.91
2022-12-31T10:03:31.162Z,11.25
2022-12-31T10:04:31.158Z,12.11
2022-12-31T10:05:31.130Z,10.77
2022-12-31T10:06:31.117Z,8.56
2022-12-31T10:07:31.138Z,7.7
2022-12-31T10:08:31.129Z,7.7
2022-12-31T10:09:31.118Z,7.7
2022-12-31T10:10:31.168Z,7.7
2022-12-31T10:11:31.193Z,6.85
2022-12-31T10:12:31.204Z,7.7
2022-12-31T10:13:31.127Z,7.34
2022-12-31T10:14:31.118Z,8.19
2022-12-31T10:15:31.167Z,8.19
2022-12-31T10:16:31.149Z,7.34
2022-12-31T10:17:31.118Z,8.19
2022-12-31T10:18:31.127Z,7.34
2022-12-31T10:19:31.157Z,6.85
2022-12-31T10:20:31.144Z,7.7
2022-12-31T10:21:31.130Z,9.54
2022-12-31T10:22:31.116Z,9.91
2022-12-31T10:23:31.164Z,9.91
2022-12-31T10:24:31.196Z,9.91
2022-12-31T10:25:38.751Z,10.77
2022-12-31T10:26:31.117Z,10.39
2022-12-31T10:27:31.103Z,10.39
2022-12-31T10:28:31.134Z,9.54
2022-12-31T10:29:31.148Z,8.56
2022-12-31T10:30:31.277Z,9.05
2022-12-31T10:31:31.099Z,9.54
2022-12-31T10:32:31.623Z,9.54
2022-12-31T10:33:31.161Z,9.91
2022-12-31T10:34:31.124Z,9.91
2022-12-31T10:35:31.117Z,10.39
2022-12-31T10:36:31.096Z,10.39
2022-12-31T10:37:31.124Z,9.54
2022-12-31T10:38:31.146Z,9.54
2022-12-31T10:39:31.138Z,10.39
2022-12-31T10:40:31.122Z,10.77
2022-12-31T10:41:31.127Z,10.77
2022-12-31T10:42:31.132Z,11.62
2022-12-31T10:43:31.136Z,11.25
2022-12-31T10:44:31.122Z,11.62
2022-12-31T10:45:31.207Z,11.25
2022-12-31T10:46:31.276Z,9.91
2022-12-31T10:47:31.111Z,10.39
2022-12-31T10:48:31.337Z,9.91
2022-12-31T10:49:31.131Z,9.54
2022-12-31T10:50:31.123Z,8.56
2022-12-31T10:51:31.143Z,7.7
2022-12-31T10:52:31.099Z,8.19
2022-12-31T10:53:31.145Z,7.7
2022-12-31T10:54:31.221Z,7.34
2022-12-31T10:55:31.108Z,7.34
2022-12-31T10:56:31.117Z,8.19
2022-12-31T10:57:31.132Z,7.7
2022-12-31T10:58:31.151Z,9.05
2022-12-31T10:59:31.110Z,9.91
2022-12-31T11:00:31.111Z,10.39
2022-12-31T11:01:31.228Z,10.39
2022-12-31T11:02:31.207Z,9.91
2022-12-31T11:03:31.146Z,9.54
2022-12-31T11:04:31.178Z,9.91
2022-12-31T11:05:31.145Z,8.56
2022-12-31T11:06:31.127Z,7.7
2022-12-31T11:07:31.133Z,8.56
2022-12-31T11:08:31.123Z,8.19
2022-12-31T11:09:34.508Z,6.85
2022-12-31T11:10:31.140Z,6.85
2022-12-31T11:11:31.106Z,6.48
2022-12-31T11:12:31.134Z,6.85
2022-12-31T11:13:31.152Z,6.48
2022-12-31T11:14:31.183Z,5.99
2022-12-31T11:15:31.097Z,6.48
2022-12-31T11:16:31.175Z,6.85
2022-12-31T11:17:31.176Z,6.85
2022-12-31T11:18:31.131Z,7.34
2022-12-31T11:19:31.150Z,7.34
2022-12-31T11:20:31.277Z,7.34
2022-12-31T11:21:31.204Z,8.19
2022-12-31T11:22:31.144Z,8.19
2022-12-31T11:23:31.127Z,8.56
2022-12-31T11:24:31.235Z,9.05
2022-12-31T11:25:31.281Z,9.05
2022-12-31T11:26:31.171Z,9.91
2022-12-31T11:27:31.145Z,9.91
2022-12-31T11:28:31.125Z,10.39
2022-12-31T11:29:31.165Z,11.62
2022-12-31T11:30:31.134Z,12.11
2022-12-31T11:31:31.143Z,12.97
2022-12-31T11:32:31.240Z,13.33
2022-12-31T11:33:31.091Z,13.33
2022-12-31T11:34:31.139Z,13.33
2022-12-31T11:35:31.122Z,12.48
2022-12-31T11:36:31.123Z,12.97
2022-12-31T11:37:31.117Z,12.97
2022-12-31T11:38:31.119Z,13.82
2022-12-31T11:39:31.580Z,13.33
2022-12-31T11:40:31.989Z,14.31
2022-12-31T11:41:31.126Z,15.17
2022-12-31T11:42:31.123Z,15.17
2022-12-31T11:43:31.115Z,15.53
2022-12-31T11:44:31.114Z,15.53
2022-12-31T11:45:31.154Z,16.02
2022-12-31T11:46:31.214Z,16.39
2022-12-31T11:47:31.161Z,16.39
2022-12-31T11:48:32.250Z,16.39
2022-12-31T11:49:31.088Z,17.25
2022-12-31T11:50:31.166Z,18.11
2022-12-31T11:51:31.126Z,17.25
2022-12-31T11:52:31.160Z,18.11
2022-12-31T11:53:31.095Z,17.73
2022-12-31T11:54:31.139Z,17.25
2022-12-31T11:55:31.142Z,16.88
2022-12-31T11:56:31.106Z,16.02
2022-12-31T11:57:31.085Z,16.39
2022-12-31T11:58:31.127Z,16.02
2022-12-31T11:59:31.105Z,16.02
2022-12-31T12:00:31.206Z,15.17
2022-12-31T12:01:31.160Z,16.02
2022-12-31T12:02:31.247Z,15.53
2022-12-31T12:03:31.240Z,14.68
2022-12-31T12:04:31.409Z,16.39
2022-12-31T12:05:31.093Z,16.39
2022-12-31T12:06:31.126Z,16.39
2022-12-31T12:07:31.110Z,15.53
2022-12-31T12:08:31.112Z,15.17
2022-12-31T12:09:31.153Z,15.53
2022-12-31T12:10:36.168Z,15.53
2022-12-31T12:11:31.131Z,14.68
2022-12-31T12:12:31.184Z,15.53
2022-12-31T12:13:31.252Z,16.02
2022-12-31T12:14:31.163Z,15.17
2022-12-31T12:15:31.197Z,15.17
2022-12-31T12:16:31.165Z,13.82
2022-12-31T12:17:31.106Z,12.97
2022-12-31T12:18:31.136Z,12.48
2022-12-31T12:19:31.097Z,12.48
2022-12-31T12:20:31.125Z,12.97
2022-12-31T12:21:31.123Z,12.97
2022-12-31T12:22:31.144Z,13.82
2022-12-31T12:23:31.105Z,15.17
2022-12-31T12:24:31.158Z,15.17
2022-12-31T12:25:31.141Z,13.82
2022-12-31T12:26:31.054Z,14.31
2022-12-31T12:27:31.132Z,14.31
2022-12-31T12:28:31.105Z,13.82
2022-12-31T12:29:31.119Z,13.33
2022-12-31T12:30:31.135Z,12.97
2022-12-31T12:31:31.146Z,13.33
2022-12-31T12:32:31.137Z,13.33
2022-12-31T12:33:31.133Z,13.82
2022-12-31T12:34:31.123Z,13.82
2022-12-31T12:35:31.129Z,14.31
2022-12-31T12:36:31.070Z,14.31
2022-12-31T12:37:31.098Z,14.31
2022-12-31T12:38:31.100Z,13.82
2022-12-31T12:39:31.128Z,13.33
2022-12-31T12:40:34.099Z,12.11
2022-12-31T12:41:31.170Z,12.48
2022-12-31T12:42:31.118Z,12.97
2022-12-31T12:43:31.120Z,12.97
2022-12-31T12:44:31.131Z,12.48
2022-12-31T12:45:31.109Z,12.97
2022-12-31T12:46:31.131Z,12.48
2022-12-31T12:47:31.135Z,12.11
2022-12-31T12:48:31.095Z,12.11
2022-12-31T12:49:31.091Z,12.11
2022-12-31T12:50:31.102Z,12.11
2022-12-31T12:51:31.134Z,12.11
2022-12-31T12:52:31.091Z,12.11
2022-12-31T12:53:31.096Z,12.48
2022-12-31T12:54:31.105Z,11.25
2022-12-31T12:55:31.136Z,11.25
2022-12-31T12:56:31.109Z,9.91
2022-12-31T12:57:31.157Z,10.77
2022-12-31T12:58:31.115Z,10.39
2022-12-31T12:59:31.128Z,10.39
2022-12-31T13:00:31.141Z,10.77
2022-12-31T13:01:31.247Z,9.54
2022-12-31T13:02:31.295Z,9.91
2022-12-31T13:03:31.140Z,9.91
2022-12-31T13:04:35.283Z,9.54
2022-12-31T13:05:31.115Z,9.91
2022-12-31T13:06:31.099Z,9.05
2022-12-31T13:07:31.137Z,8.56
2022-12-31T13:08:31.115Z,8.19
2022-12-31T13:09:31.123Z,7.34
2022-12-31T13:10:31.160Z,7.7
2022-12-31T13:11:31.141Z,7.34
2022-12-31T13:12:48.979Z,5.99
2022-12-31T13:13:31.163Z,6.85
2022-12-31T13:14:31.113Z,5.99
2022-12-31T13:15:31.132Z,5.63
2022-12-31T13:16:31.139Z,5.14
2022-12-31T13:17:31.110Z,5.63
2022-12-31T13:18:31.122Z,4.28
2022-12-31T13:19:31.162Z,4.28
2022-12-31T13:20:31.079Z,4.28
2022-12-31T13:21:31.111Z,4.28
2022-12-31T13:22:31.121Z,3.79
2022-12-31T13:23:36.206Z,3.79
2022-12-31T13:24:31.090Z,3.79
2022-12-31T13:25:31.250Z,3.79
2022-12-31T13:26:31.128Z,2.57
2022-12-31T13:27:31.157Z,2.94
2022-12-31T13:28:31.116Z,3.43
2022-12-31T13:29:31.089Z,3.79
2022-12-31T13:30:31.113Z,3.43
2022-12-31T13:31:31.107Z,3.43
2022-12-31T13:32:31.169Z,3.43
2022-12-31T13:33:31.089Z,2.94
2022-12-31T13:34:31.211Z,2.57
2022-12-31T13:35:31.147Z,2.57
2022-12-31T13:36:31.119Z,2.94
2022-12-31T13:37:31.092Z,2.57
2022-12-31T13:38:31.114Z,1.71
2022-12-31T13:39:31.121Z,1.71
2022-12-31T13:40:31.124Z,1.22
2022-12-31T13:41:31.088Z,1.22
2022-12-31T13:42:31.116Z,2.08
2022-12-31T13:43:31.092Z,0.85
2022-12-31T13:44:31.127Z,0.85
2022-12-31T13:45:31.146Z,0.85
2022-12-31T13:46:31.105Z,1.22
2022-12-31T13:47:31.109Z,0.36
2022-12-31T13:48:31.159Z,0.36
2022-12-31T13:49:31.109Z,0.85
2022-12-31T13:50:31.099Z,0.36
2022-12-31T13:51:31.084Z,0
2022-12-31T13:52:31.119Z,0
2022-12-31T13:53:31.065Z,0
2022-12-31T13:54:31.100Z,0
2022-12-31T13:55:31.170Z,0
2022-12-31T13:56:31.125Z,0.36
2022-12-31T13:57:31.105Z,0
2022-12-31T13:58:31.131Z,0
2022-12-31T13:59:31.109Z,0
2022-12-31T14:00:31.137Z,0
2022-12-31T14:01:34.158Z,0
2022-12-31T14:02:31.264Z,0
2022-12-31T14:03:31.098Z,0
2022-12-31T14:04:31.111Z,0
2022-12-31T14:05:31.104Z,0